Flight Track Log - Related Links

Times and Time Zones

All times are in EST time to prevent confusion due to time zone crossing. See the UPS2977 flight status page for this flight to view local times or setup timezone preferences in your user account.

Time Position Orientation Groundspeed Altitude Reporting Facility
EST Latitude Longitude Course Direction KTS MPH feet Rate Location/Type
Thu 08:57:00 AM 45.5981 -122.6286 298° West 170 196 2,300  Level FlightAware ADS-B (SBFL / FLN)
Thu 08:57:21 AM 45.6064 -122.6518 297° West 183 211 3,400 2,488 Climbing FlightAware ADS-B (SBFL / FLN)
Thu 08:57:41 AM 45.6161 -122.6737 302° West 213 245 4,000 2,400 Climbing FlightAware ADS-B (SBFL / FLN)
Thu 08:58:01 AM 45.6314 -122.6816 340° North 243 280 5,000 3,750 Climbing FlightAware ADS-B (SBFL / FLN)
Thu 08:58:21 AM 45.6579 -122.6654 23° Northeast 263 303 6,500 3,692 Climbing FlightAware ADS-B (SBFL / FLN)
Thu 08:58:40 AM 45.6699 -122.6351 61° Northeast 289 333 7,400 3,150 Climbing FlightAware ADS-B (SBFL / FLN)
Thu 08:59:01 AM 45.6767 -122.6077 70° East 300 345 8,600 3,714 Climbing FlightAware ADS-B (SBFL / FLN)
Thu 08:59:22 AM 45.6890 -122.5589 70° East 300 345 10,000 2,800 Climbing FlightAware ADS-B (SBFL / FLN)
Thu 09:00:01 AM 45.7074 -122.4781 72° East 348 400 11,400 2,127 Climbing FlightAware ADS-B (SBFL / FLN)
Thu 09:00:41 AM 45.7312 -122.3863 70° East 381 438 12,800 2,333 Climbing FlightAware ADS-B (SBFL / FLN)
Thu 09:01:13 AM 45.7553 -122.3330 57° Northeast 385 443 14,200 3,220 Climbing FlightAware ADS-B
Thu 09:01:22 AM 45.7674 -122.3046 59° Northeast 390 449 15,000 3,130 Climbing FlightAware ADS-B (SBFL / FLN)
Thu 09:01:59 AM 45.8002 -122.2320 57° Northeast 398 458 16,600 3,077 Climbing FlightAware ADS-B
Thu 09:02:01 AM 45.8085 -122.2121 59° Northeast 402 463 17,000 2,600 Climbing FlightAware ADS-B (SBFL / FLN)
Thu 09:02:29 AM 45.8304 -122.1640 57° Northeast 410 472 17,900 2,488 Climbing FlightAware ADS-B
Thu 09:02:42 AM 45.8451 -122.1298 58° Northeast 418 481 18,700 2,400 Climbing FlightAware ADS-B (SBFL / FLN)
Thu 09:02:59 AM 45.8616 -122.0950 56° Northeast 421 484 19,100 2,400 Climbing FlightAware ADS-B
Thu 09:03:22 AM 45.8914 -122.0256 58° Northeast 428 493 20,300 2,600 Climbing FlightAware ADS-B (SBFL / FLN)
Thu 09:03:29 AM 45.8932 -122.0210 61° Northeast 428 493 20,400 2,108 Climbing FlightAware ADS-B
Thu 09:03:59 AM 45.9254 -121.9480 58° Northeast 436 502 21,600 2,361 Climbing FlightAware ADS-B
Thu 09:04:30 AM 45.9588 -121.8740 57° Northeast 443 510 22,800 2,361 Climbing FlightAware ADS-B
Thu 09:05:00 AM 45.9919 -121.7990 58° Northeast 448 516 24,000 2,739 Climbing FlightAware ADS-B
Thu 09:05:16 AM 46.0024 -121.7736 59° Northeast 448 516 24,900 2,129 Climbing FlightAware ADS-B (SBFL / FLN)
Thu 09:05:31 AM 46.0252 -121.7210 58° Northeast 448 516 25,100 1,867 Climbing FlightAware ADS-B
Thu 09:06:01 AM 46.0587 -121.6450 58° Northeast 449 517 26,300 2,361 Climbing FlightAware ADS-B
Thu 09:06:32 AM 46.0923 -121.5660 58° Northeast 448 516 27,500 2,066 Climbing FlightAware ADS-B
Thu 09:07:02 AM 46.1260 -121.4880 58° Northeast 449 517 28,400 1,279 Climbing FlightAware ADS-B
Thu 09:07:33 AM 46.1606 -121.4110 57° Northeast 464 534 28,800 581 Climbing FlightAware ADS-B
Thu 09:08:04 AM 46.1960 -121.3280 58° Northeast 476 548 29,000 182 Climbing FlightAware ADS-B
Thu 09:08:39 AM 46.2367 -121.2330 58° Northeast 477 549 29,000  Level FlightAware ADS-B
Thu 09:09:10 AM 46.2723 -121.1500 58° Northeast 474 545 29,000  Level FlightAware ADS-B
Thu 09:09:43 AM 46.3099 -121.0610 59° Northeast 474 545 29,000  Level FlightAware ADS-B
Thu 09:10:13 AM 46.3441 -120.9810 58° Northeast 467 537 29,000  Level FlightAware ADS-B
Thu 09:11:07 AM 46.4053 -120.8370 58° Northeast 465 535 29,000  Level FlightAware ADS-B
Thu 09:12:01 AM 46.4668 -120.6900 59° Northeast 470 541 29,000  Level FlightAware ADS-B
Thu 09:12:32 AM 46.5011 -120.6090 58° Northeast 469 540 29,000  Level FlightAware ADS-B
Thu 09:13:02 AM 46.5352 -120.5280 59° Northeast 470 541 29,000  Level FlightAware ADS-B
Thu 09:13:40 AM 46.5772 -120.4260 59° Northeast 469 540 29,000  Level FlightAware ADS-B
Thu 09:14:17 AM 46.6193 -120.3270 58° Northeast 466 536 29,000  Level FlightAware ADS-B
Thu 09:14:49 AM 46.6547 -120.2420 59° Northeast 464 534 29,000  Level FlightAware ADS-B
Thu 09:15:20 AM 46.6895 -120.1550 60° Northeast 476 548 29,000  Level FlightAware ADS-B
Thu 09:15:52 AM 46.7256 -120.0690 58° Northeast 484 557 29,000  Level FlightAware ADS-B
Thu 09:16:25 AM 46.7634 -119.9760 59° Northeast 487 560 29,000  Level FlightAware ADS-B
Thu 09:17:31 AM 46.8397 -119.7890 59° Northeast 493 567 29,000  Level FlightAware ADS-B
Thu 09:18:09 AM 46.8846 -119.6780 59° Northeast 489 563 29,000 -1,151 Level FlightAware ADS-B
Thu 09:18:44 AM 46.9241 -119.5820 59° Northeast 484 557 27,600 -2,143 Descending FlightAware ADS-B
Thu 09:19:33 AM 46.9667 -119.4672 59° Northeast 485 558 26,000 -2,147 Descending Seattle Center
Thu 09:20:33 AM 47.0317 -119.3022 60° Northeast 473 544 23,700 -2,231 Descending Seattle Center
Thu 09:21:34 AM 47.0956 -119.1433 59° Northeast 460 529 21,500 -2,115 Descending Seattle Center
Thu 09:22:35 AM 47.1561 -118.9892 60° Northeast 444 511 19,400 -2,231 Descending Seattle Center
Thu 09:23:35 AM 47.2244 -118.8264 58° Northeast 420 483 17,000 -2,182 Descending Seattle Center
Thu 09:24:36 AM 47.2814 -118.6808 60° Northeast 414 476 15,000 -2,579 Descending Seattle Center
Thu 09:25:36 AM 47.3364 -118.5386 60° Northeast 403 464 11,800 -1,983 Descending Seattle Center
Thu 09:26:37 AM 47.3908 -118.3889 62° Northeast 403 464 11,000 -397 Descending Seattle Center
Thu 09:27:37 AM 47.4464 -118.2444 60° Northeast 403 464 11,000  Level Seattle Center
Thu 09:28:38 AM 47.4956 -118.1131 61° Northeast 356 410 11,000 -443 Level Seattle Center
Thu 09:29:39 AM 47.5411 -117.9889 61° Northeast 321 369 10,100 -1,041 Descending Seattle Center
Thu 09:30:39 AM 47.5847 -117.8769 60° Northeast 316 364 8,900 -1,289 Descending Seattle Center
Thu 09:31:40 AM 47.6281 -117.7725 58° Northeast 301 346 7,500 -1,475 Descending Seattle Center
Thu 09:32:41 AM 47.6736 -117.6683 57° Northeast 299 344 5,900 -1,140 Descending Seattle Center
Thu 09:33:41 AM 47.7206 -117.5689 55° Northeast 289 333 5,200 -446 Descending Seattle Center
Thu 09:34:42 AM 47.7628 -117.4822 54° Northeast 261 300 5,000 -298 Descending Seattle Center
Thu 09:35:42 AM 47.7886 -117.3936 67° East 245 282 4,600 -496 Descending Seattle Center
Thu 09:36:43 AM 47.7533 -117.3469 138° Southeast 174 200 4,000 -295 Descending Seattle Center
Thu 09:37:44 AM 47.7211 -117.3831 217° Southwest 150 173 4,000  Level Seattle Center
Thu 09:38:44 AM 47.6931 -117.4256 226° Southwest 146 168 4,000 -248 Level Seattle Center
Thu 09:39:45 AM 47.6703 -117.4606 226° Southwest 122 140 3,500 -541 Descending Seattle Center
Thu 09:40:46 AM 47.6486 -117.4928 225° Southwest 112 129 2,900 -645 Descending Seattle Center
Thu 09:41:46 AM 47.6242 -117.5294 225° Southwest 129 148 2,200 -248 Descending Seattle Center
Thu 09:42:47 AM 47.6189 -117.5381 228° Southwest 69 79 2,400 197 Climbing Seattle Center

Login

Don't have an account? Register now (free) for customized features, flight alerts, and more!